Time;durP1;ratioP1;P1;durP2;ratioP2;P2;SDS_P1;SDS_P2;PMS_P1;PMS_P2;Temp;Humidity;BMP_temperature;BMP_pressure;BME280_temperature;BME280_humidity;BME280_pressure;Samples;Min_cycle;Max_cycle;Signal;HPM_P1;HPM_P2
2022/05/11 00:01:12;;;;;;;11.80;10.60;;;18.50;99.90;;;;;;5028110;28;20480;-89
2022/05/11 00:03:40;;;;;;;12.07;10.87;;;18.50;99.90;;;;;;5026357;28;20441;-88
2022/05/11 00:06:10;;;;;;;12.27;11.07;;;18.40;99.90;;;;;;5030093;28;20516;-87
2022/05/11 00:08:37;;;;;;;13.17;11.87;;;18.30;99.90;;;;;;5032073;28;20534;-87
2022/05/11 00:11:04;;;;;;;12.40;11.10;;;18.30;99.90;;;;;;5028574;28;20450;-88
2022/05/11 00:13:31;;;;;;;13.00;11.10;;;18.20;99.90;;;;;;5028213;28;20534;-87
2022/05/11 00:15:58;;;;;;;11.37;10.27;;;18.10;99.90;;;;;;5026578;28;20464;-88
2022/05/11 00:18:25;;;;;;;12.80;11.40;;;18.20;99.90;;;;;;5024021;28;20457;-88
2022/05/11 00:20:54;;;;;;;13.40;10.97;;;18.10;99.90;;;;;;5023484;28;20508;-88
2022/05/11 00:23:21;;;;;;;12.53;10.27;;;18.00;99.90;;;;;;5022580;28;20919;-87
2022/05/11 00:25:48;;;;;;;11.93;10.73;;;18.10;99.90;;;;;;5021415;28;20466;-86
2022/05/11 00:28:16;;;;;;;14.20;11.53;;;18.10;99.90;;;;;;5021915;28;20475;-87
2022/05/11 00:30:43;;;;;;;14.50;11.13;;;18.00;99.90;;;;;;5024449;28;20915;-87
2022/05/11 00:33:13;;;;;;;11.40;10.20;;;18.00;99.90;;;;;;5033537;28;20495;-86
2022/05/11 00:35:41;;;;;;;14.87;11.03;;;17.90;99.90;;;;;;5028932;28;20457;-87
2022/05/11 00:38:10;;;;;;;12.27;11.07;;;17.80;99.90;;;;;;5032687;28;20468;-88
2022/05/11 00:40:41;;;;;;;14.63;11.90;;;17.80;99.90;;;;;;5027837;28;20446;-89
2022/05/11 00:43:08;;;;;;;11.67;10.13;;;17.80;99.90;;;;;;5024820;28;20413;-88
2022/05/11 00:45:35;;;;;;;11.43;10.33;;;17.70;99.90;;;;;;5025148;28;20505;-88
2022/05/11 00:49:33;;;;;;;10.83;9.70;;;17.70;99.90;;;;;;5028436;28;20438;-86
2022/05/11 00:50:53;;;;;;;11.40;10.30;;;17.70;99.90;;;;;;5029592;28;20481;-86
2022/05/11 00:53:22;;;;;;;12.27;9.93;;;17.60;99.90;;;;;;5025283;28;20593;-86
2022/05/11 00:55:52;;;;;;;11.87;10.60;;;17.60;99.90;;;;;;5026328;28;20442;-87
2022/05/11 00:58:23;;;;;;;11.40;10.20;;;17.60;99.90;;;;;;5021936;28;20494;-86
2022/05/11 01:00:50;;;;;;;11.90;10.07;;;17.50;99.90;;;;;;5022313;28;20443;-88
2022/05/11 01:03:20;;;;;;;11.60;9.83;;;17.50;99.90;;;;;;5022116;28;20549;-87
2022/05/11 01:05:47;;;;;;;11.60;10.10;;;17.60;99.90;;;;;;5022210;28;20434;-87
2022/05/11 01:08:17;;;;;;;10.10;8.70;;;17.60;99.90;;;;;;5022418;28;20453;-87
2022/05/11 01:10:46;;;;;;;10.60;9.20;;;17.60;99.90;;;;;;5022320;28;20442;-87
2022/05/11 01:13:17;;;;;;;13.20;10.10;;;17.60;99.90;;;;;;5022819;28;20464;-88
2022/05/11 01:15:48;;;;;;;11.40;10.03;;;17.60;99.90;;;;;;5021813;28;20416;-87
2022/05/11 01:18:15;;;;;;;12.67;10.23;;;17.50;99.90;;;;;;5021915;28;20484;-88
2022/05/11 01:20:44;;;;;;;11.03;9.73;;;17.50;99.90;;;;;;5021033;28;20480;-87
2022/05/11 01:23:15;;;;;;;11.53;9.30;;;17.50;99.90;;;;;;5020604;28;20429;-88
2022/05/11 01:25:44;;;;;;;11.53;9.57;;;17.50;99.90;;;;;;5021631;28;20446;-87
2022/05/11 01:28:13;;;;;;;12.10;10.00;;;17.50;99.90;;;;;;5021816;28;20474;-87
2022/05/11 01:30:42;;;;;;;11.80;9.40;;;17.50;99.90;;;;;;5022566;28;20897;-87
2022/05/11 01:33:10;;;;;;;13.33;9.07;;;17.50;99.90;;;;;;5023181;28;20488;-86
2022/05/11 01:35:47;;;;;;;10.80;8.90;;;17.40;99.90;;;;;;5025291;28;20511;-88
2022/05/11 01:38:23;;;;;;;10.97;9.30;;;17.40;99.90;;;;;;5023241;28;20500;-87
2022/05/11 01:40:51;;;;;;;10.50;9.33;;;17.40;99.90;;;;;;5023641;28;20413;-88
2022/05/11 01:43:22;;;;;;;8.80;7.90;;;17.40;99.90;;;;;;5022645;28;20533;-88
2022/05/11 01:45:49;;;;;;;11.77;10.30;;;17.40;99.90;;;;;;5027256;28;20473;-87
2022/05/11 01:48:16;;;;;;;10.13;8.90;;;17.40;99.90;;;;;;5029477;28;20482;-87
2022/05/11 01:50:43;;;;;;;10.70;8.80;;;17.40;99.90;;;;;;5024406;28;20465;-88
2022/05/11 01:53:11;;;;;;;11.70;8.90;;;17.40;99.90;;;;;;5021313;28;20441;-87
2022/05/11 01:55:38;;;;;;;10.83;8.70;;;17.40;99.90;;;;;;5020363;28;20456;-86
2022/05/11 01:58:07;;;;;;;10.63;8.40;;;17.30;99.90;;;;;;5019592;28;20889;-86
2022/05/11 02:00:35;;;;;;;11.77;9.17;;;17.40;99.90;;;;;;5020413;28;20518;-88
2022/05/11 02:03:02;;;;;;;11.20;9.17;;;17.40;99.90;;;;;;5019097;28;20518;-86
2022/05/11 02:08:13;;;;;;;10.80;9.70;;;17.20;99.90;;;;;;5021617;28;20450;-88
2022/05/11 02:10:40;;;;;;;10.50;8.93;;;17.20;99.90;;;;;;5020914;28;20765;-89
2022/05/11 02:13:08;;;;;;;10.80;8.73;;;17.30;99.90;;;;;;5019544;28;20421;-87
2022/05/11 02:15:36;;;;;;;11.40;9.40;;;17.30;99.90;;;;;;5019466;28;20454;-87
2022/05/11 02:18:03;;;;;;;9.03;7.87;;;17.20;99.90;;;;;;5017345;28;20458;-86
2022/05/11 02:20:30;;;;;;;9.60;8.53;;;17.20;99.90;;;;;;5022984;28;20882;-87
2022/05/11 02:22:57;;;;;;;9.93;8.93;;;17.20;99.90;;;;;;5028507;28;20437;-87
2022/05/11 02:25:24;;;;;;;11.47;9.07;;;17.20;99.90;;;;;;5024148;28;20453;-85
2022/05/11 02:27:52;;;;;;;10.20;8.73;;;17.10;99.90;;;;;;5022497;28;20534;-86
2022/05/11 02:30:23;;;;;;;10.37;7.43;;;17.10;99.90;;;;;;5024912;28;20433;-88
2022/05/11 02:32:50;;;;;;;9.80;8.33;;;17.20;99.90;;;;;;5026625;28;20969;-88
2022/05/11 02:35:18;;;;;;;9.20;8.23;;;17.20;99.90;;;;;;5021690;28;20561;-88
2022/05/11 02:37:47;;;;;;;9.63;8.03;;;17.20;99.90;;;;;;5021670;28;20512;-87
2022/05/11 02:40:17;;;;;;;10.43;8.63;;;17.20;99.90;;;;;;5020976;28;20533;-88
2022/05/11 02:42:44;;;;;;;9.57;8.40;;;17.10;99.90;;;;;;5020377;28;20515;-88
2022/05/11 02:45:12;;;;;;;10.20;8.70;;;17.20;99.90;;;;;;5019983;28;20906;-87
2022/05/11 02:47:42;;;;;;;11.47;8.63;;;17.10;99.90;;;;;;5020701;28;20454;-87
2022/05/11 02:50:10;;;;;;;10.30;8.33;;;17.00;99.90;;;;;;5024813;28;20444;-87
2022/05/11 02:52:37;;;;;;;8.50;7.30;;;17.00;99.90;;;;;;5029575;28;20468;-87
2022/05/11 02:55:04;;;;;;;9.50;8.50;;;17.00;99.90;;;;;;5027536;28;21013;-87
2022/05/11 02:57:32;;;;;;;12.27;8.50;;;17.00;99.90;;;;;;5022101;28;20502;-88
2022/05/11 02:59:59;;;;;;;9.70;8.20;;;17.00;99.90;;;;;;5021113;28;20536;-87
2022/05/11 03:02:26;;;;;;;11.80;8.93;;;17.10;99.90;;;;;;5022201;28;20533;-87
2022/05/11 03:04:54;;;;;;;8.87;7.70;;;17.00;99.90;;;;;;5021016;28;20457;-88
2022/05/11 03:07:21;;;;;;;9.90;8.90;;;17.10;99.90;;;;;;5023572;28;20457;-88
2022/05/11 03:09:49;;;;;;;10.77;8.17;;;17.10;99.90;;;;;;5021390;28;20456;-88
2022/05/11 03:12:16;;;;;;;9.20;7.87;;;17.10;99.90;;;;;;5020545;28;20803;-88
2022/05/11 03:14:43;;;;;;;10.30;8.70;;;17.10;99.90;;;;;;5021337;28;20486;-88
2022/05/11 03:17:10;;;;;;;10.30;9.10;;;17.10;99.90;;;;;;5022496;28;20497;-88
2022/05/11 03:19:37;;;;;;;9.00;8.10;;;17.10;99.90;;;;;;5041611;22;20474;-90
2022/05/11 03:22:09;;;;;;;9.20;8.20;;;17.10;99.90;;;;;;5028898;28;20465;-88
2022/05/11 03:24:36;;;;;;;12.33;7.90;;;17.00;99.90;;;;;;5038362;28;20436;-90
2022/05/11 03:27:04;;;;;;;10.43;8.27;;;17.00;99.90;;;;;;5036616;28;20469;-89
2022/05/11 03:29:31;;;;;;;10.00;8.13;;;17.10;99.90;;;;;;5019340;28;20494;-90
2022/05/11 03:34:43;;;;;;;10.43;7.50;;;17.10;99.90;;;;;;5021413;28;20472;-89
2022/05/11 03:37:13;;;;;;;12.33;8.50;;;17.00;99.90;;;;;;5022800;28;20481;-89
2022/05/11 03:39:40;;;;;;;9.80;8.60;;;17.00;99.90;;;;;;5023839;28;20478;-89
2022/05/11 03:42:08;;;;;;;8.67;7.57;;;17.00;99.90;;;;;;5025541;28;20474;-89
2022/05/11 03:44:35;;;;;;;8.83;7.93;;;17.00;99.90;;;;;;5022388;28;20853;-89
2022/05/11 03:47:02;;;;;;;8.83;7.53;;;17.00;99.90;;;;;;5019644;28;20487;-89
2022/05/11 03:49:29;;;;;;;8.80;7.70;;;17.10;99.90;;;;;;5018476;28;20478;-89
2022/05/11 03:51:56;;;;;;;10.93;7.47;;;17.10;99.90;;;;;;5018460;28;20446;-89
2022/05/11 03:54:25;;;;;;;9.77;8.40;;;17.10;99.90;;;;;;5018345;28;20507;-89
2022/05/11 03:56:52;;;;;;;11.60;7.93;;;17.10;99.90;;;;;;5018657;28;20946;-89
2022/05/11 03:59:19;;;;;;;9.80;8.33;;;17.10;99.90;;;;;;5017562;28;20455;-89
2022/05/11 04:01:46;;;;;;;10.93;8.10;;;17.10;99.90;;;;;;5018172;28;20441;-89
2022/05/11 04:04:13;;;;;;;8.97;7.93;;;17.20;99.90;;;;;;5018177;28;20454;-89
2022/05/11 04:06:40;;;;;;;8.93;7.90;;;17.30;99.90;;;;;;5020286;28;20450;-89
2022/05/11 04:09:07;;;;;;;10.67;8.20;;;17.30;99.90;;;;;;5020710;28;20975;-89
2022/05/11 04:11:36;;;;;;;16.77;9.10;;;17.20;99.90;;;;;;5029687;28;20493;-88
2022/05/11 04:14:03;;;;;;;10.20;8.00;;;17.20;99.90;;;;;;5040323;28;20462;-88
2022/05/11 04:16:30;;;;;;;11.17;9.03;;;17.20;99.90;;;;;;5032110;28;20540;-89
2022/05/11 04:18:59;;;;;;;8.50;7.60;;;17.10;99.90;;;;;;5036007;28;20480;-90
2022/05/11 04:21:27;;;;;;;8.63;7.73;;;17.10;99.90;;;;;;5023413;28;20451;-90
2022/05/11 04:23:53;;;;;;;8.80;7.70;;;17.20;99.90;;;;;;5023435;28;20443;-90
2022/05/11 04:26:23;;;;;;;9.43;7.93;;;17.20;99.90;;;;;;5020768;28;20497;-89
2022/05/11 04:28:51;;;;;;;8.97;7.30;;;17.30;99.90;;;;;;5023086;28;20501;-90
2022/05/11 04:31:18;;;;;;;10.77;9.23;;;17.30;99.90;;;;;;5020981;28;20545;-89
2022/05/11 04:33:47;;;;;;;8.67;7.70;;;17.30;99.90;;;;;;5020211;28;20461;-89
2022/05/11 04:36:14;;;;;;;10.30;7.23;;;17.30;99.90;;;;;;5020300;28;20421;-88
2022/05/11 04:38:41;;;;;;;10.00;7.13;;;17.40;99.90;;;;;;5023805;28;20445;-88
2022/05/11 04:41:08;;;;;;;9.70;7.30;;;17.50;99.90;;;;;;5037171;28;20510;-87
2022/05/11 04:43:35;;;;;;;8.30;7.40;;;17.50;99.90;;;;;;5039863;28;20400;-86
2022/05/11 04:46:04;;;;;;;9.10;7.20;;;17.50;99.90;;;;;;5039179;28;20498;-88
2022/05/11 04:48:30;;;;;;;9.90;7.57;;;17.60;99.90;;;;;;5038769;28;20473;-88
2022/05/11 04:51:02;;;;;;;9.43;6.70;;;17.50;99.90;;;;;;5036593;28;20439;-89
2022/05/11 04:53:29;;;;;;;12.90;7.43;;;17.50;99.90;;;;;;5026420;28;20958;-89
2022/05/11 04:55:56;;;;;;;8.67;7.03;;;17.60;99.90;;;;;;5022328;28;20489;-90
2022/05/11 04:58:24;;;;;;;7.17;6.43;;;17.70;99.90;;;;;;5019199;28;20456;-89
2022/05/11 05:00:51;;;;;;;8.47;7.13;;;17.70;99.90;;;;;;5020064;28;20505;-90
2022/05/11 05:03:19;;;;;;;9.83;6.80;;;17.70;99.90;;;;;;5021217;28;20429;-89
2022/05/11 05:05:46;;;;;;;9.50;7.33;;;17.60;99.90;;;;;;5022596;28;20431;-88
2022/05/11 05:08:13;;;;;;;8.63;6.80;;;17.70;99.90;;;;;;5019938;28;20530;-88
2022/05/11 05:10:41;;;;;;;9.67;7.20;;;17.70;99.90;;;;;;5018839;28;20537;-88
2022/05/11 05:13:11;;;;;;;9.83;7.03;;;17.80;99.90;;;;;;5020449;28;20817;-89
2022/05/11 05:15:42;;;;;;;9.63;6.97;;;17.80;99.90;;;;;;5017764;28;20565;-89
2022/05/11 05:18:11;;;;;;;13.80;7.80;;;17.80;99.90;;;;;;5019554;28;20442;-88
2022/05/11 05:20:42;;;;;;;8.50;7.40;;;17.80;99.90;;;;;;5032990;28;20439;-88
2022/05/11 05:23:10;;;;;;;9.70;7.80;;;17.70;99.90;;;;;;5030511;28;20426;-89
2022/05/11 05:25:37;;;;;;;8.60;7.60;;;17.70;99.90;;;;;;5022091;28;20450;-89
2022/05/11 05:31:08;;;;;;;9.03;7.10;;;17.80;99.90;;;;;;5020108;28;20846;-89
2022/05/11 05:33:36;;;;;;;15.20;7.07;;;17.90;99.90;;;;;;5019981;28;20420;-89
2022/05/11 05:36:05;;;;;;;9.50;7.50;;;17.90;99.90;;;;;;5025692;28;20485;-86
2022/05/11 05:38:33;;;;;;;9.20;7.30;;;18.00;99.90;;;;;;5038637;28;20490;-88
2022/05/11 05:41:00;;;;;;;10.27;7.53;;;18.00;99.90;;;;;;5032647;28;20425;-89
2022/05/11 05:43:27;;;;;;;8.73;6.70;;;18.10;99.90;;;;;;5022499;28;20459;-88
2022/05/11 05:45:55;;;;;;;11.03;7.10;;;18.20;99.90;;;;;;5024309;28;20541;-89
2022/05/11 05:48:23;;;;;;;8.10;6.97;;;18.40;99.90;;;;;;5020601;28;20469;-87
2022/05/11 05:50:52;;;;;;;10.27;7.60;;;18.40;99.90;;;;;;5023205;28;20810;-89
2022/05/11 05:53:21;;;;;;;8.13;6.27;;;18.50;99.90;;;;;;5022661;28;20454;-90
2022/05/11 05:55:49;;;;;;;8.40;7.00;;;18.70;99.90;;;;;;5022801;28;20464;-89
2022/05/11 05:58:18;;;;;;;8.20;7.00;;;18.80;99.90;;;;;;5023241;28;20523;-88
2022/05/11 06:00:46;;;;;;;10.67;7.70;;;18.90;99.90;;;;;;5021644;28;20474;-88
2022/05/11 06:03:19;;;;;;;7.17;6.47;;;18.90;99.90;;;;;;5031202;28;20461;-87
2022/05/11 06:05:46;;;;;;;9.13;6.33;;;19.00;99.90;;;;;;5032578;28;20415;-88
2022/05/11 06:08:16;;;;;;;7.73;6.93;;;19.10;99.90;;;;;;5022969;28;20424;-88
2022/05/11 06:10:50;;;;;;;8.37;6.70;;;19.20;99.90;;;;;;5021327;28;20463;-87
2022/05/11 06:13:20;;;;;;;8.40;6.67;;;19.40;99.90;;;;;;5021798;28;20439;-88
2022/05/11 06:15:47;;;;;;;7.40;6.60;;;19.50;99.90;;;;;;5021730;28;20474;-88
2022/05/11 06:18:17;;;;;;;7.63;6.83;;;19.60;99.90;;;;;;5020595;28;20516;-89
2022/05/11 06:20:45;;;;;;;11.40;7.37;;;19.70;99.90;;;;;;5037204;28;20450;-89
2022/05/11 06:30:18;;;;;;;9.27;6.93;;;20.10;99.90;;;;;;5163241;22;20901;-88
2022/05/11 06:32:48;;;;;;;8.63;7.00;;;20.20;99.90;;;;;;5030180;28;20451;-89
2022/05/11 06:35:15;;;;;;;8.60;6.73;;;20.30;99.90;;;;;;5025229;28;20497;-89
2022/05/11 06:38:16;;;;;;;10.40;6.40;;;20.40;99.90;;;;;;5030945;28;20451;-90
2022/05/11 06:40:47;;;;;;;6.73;5.70;;;20.50;99.90;;;;;;5009260;28;20451;-87
2022/05/11 06:43:14;;;;;;;7.67;6.87;;;20.60;99.90;;;;;;5000802;28;20469;-88
2022/05/11 06:45:46;;;;;;;7.77;6.67;;;20.70;99.90;;;;;;5000272;28;20487;-89
2022/05/11 06:48:21;;;;;;;8.60;6.40;;;20.70;99.90;;;;;;5000112;28;20452;-89
2022/05/11 06:50:52;;;;;;;6.50;5.40;;;20.80;99.90;;;;;;4999523;28;20805;-88
2022/05/11 06:53:19;;;;;;;9.10;6.23;;;20.80;99.90;;;;;;4998586;28;20454;-88
2022/05/11 07:01:22;;;;;;;6.83;5.83;;;21.00;99.90;;;;;;4989540;28;20546;-88
2022/05/11 07:03:53;;;;;;;8.20;5.90;;;21.00;99.90;;;;;;5003413;28;20451;-88
2022/05/11 07:06:20;;;;;;;8.07;6.80;;;21.10;99.90;;;;;;5015786;28;20435;-87
2022/05/11 07:08:57;;;;;;;;;;;;;;;;;;;;;
2022/05/11 07:14:19;;;;;;;9.27;6.27;;;21.40;99.90;;;;;;5007545;28;20406;-88
2022/05/11 07:16:52;;;;;;;7.17;5.80;;;21.60;99.90;;;;;;5003441;28;20737;-89
2022/05/11 07:19:21;;;;;;;7.67;6.17;;;21.70;99.90;;;;;;5002080;28;20430;-89
2022/05/11 07:21:58;;;;;;;8.77;5.10;;;21.80;99.90;;;;;;5001758;28;20439;-89
2022/05/11 07:24:25;;;;;;;7.17;5.80;;;21.90;99.90;;;;;;5015558;28;20466;-88
2022/05/11 07:27:01;;;;;;;7.87;5.50;;;22.00;99.90;;;;;;5019344;28;20474;-89
2022/05/11 07:29:33;;;;;;;7.07;5.60;;;22.10;99.90;;;;;;5003087;28;20558;-89
2022/05/11 07:32:14;;;;;;;7.37;5.70;;;22.10;99.90;;;;;;5002523;28;20469;-89
2022/05/11 07:34:51;;;;;;;6.97;4.93;;;22.20;99.90;;;;;;5003682;28;20787;-87
2022/05/11 07:37:18;;;;;;;6.70;5.53;;;22.20;99.90;;;;;;5021093;28;20435;-88
2022/05/11 07:40:01;;;;;;;12.63;5.70;;;22.40;99.90;;;;;;5020336;28;20447;-87
2022/05/11 07:42:53;;;;;;;6.70;5.83;;;22.40;99.70;;;;;;5020688;28;20486;-87
2022/05/11 07:45:36;;;;;;;8.53;5.73;;;22.60;99.80;;;;;;5019033;28;20487;-88
2022/05/11 07:48:19;;;;;;;6.60;5.40;;;22.70;98.50;;;;;;5009608;28;20445;-89
2022/05/11 07:53:52;;;;;;;11.70;5.00;;;23.00;97.50;;;;;;4985059;28;20495;-89
2022/05/11 08:05:45;;;;;;;7.67;5.33;;;23.40;95.90;;;;;;5002887;28;20435;-90
2022/05/11 08:10:58;;;;;;;7.10;5.00;;;23.50;95.00;;;;;;4995749;28;20873;-88
2022/05/11 08:13:25;;;;;;;6.10;5.07;;;23.50;94.70;;;;;;4998553;28;20486;-89
2022/05/11 08:16:28;;;;;;;6.43;5.17;;;23.60;95.00;;;;;;4999395;28;20867;-90
2022/05/11 08:19:08;;;;;;;7.83;5.43;;;23.70;94.30;;;;;;4999772;28;20463;-90
2022/05/11 08:21:52;;;;;;;8.53;5.73;;;23.80;94.20;;;;;;5003321;28;20448;-89
2022/05/11 08:24:31;;;;;;;7.87;5.20;;;23.90;93.40;;;;;;5007554;28;20455;-88
2022/05/11 08:27:05;;;;;;;5.77;4.93;;;23.90;93.20;;;;;;5002329;28;20459;-89
2022/05/11 08:36:08;;;;;;;8.10;4.90;;;24.10;92.20;;;;;;5000411;28;20513;-89
2022/05/11 08:38:55;;;;;;;8.50;5.50;;;24.20;91.90;;;;;;5000225;28;20534;-89
2022/05/11 08:41:51;;;;;;;9.50;5.83;;;24.30;91.60;;;;;;5000754;28;20486;-88
2022/05/11 08:44:21;;;;;;;6.93;5.23;;;24.40;91.90;;;;;;4998017;28;20546;-89
2022/05/11 08:47:20;;;;;;;8.33;5.80;;;24.50;91.70;;;;;;5019466;28;20446;-85
2022/05/11 08:50:16;;;;;;;6.30;5.57;;;24.50;91.80;;;;;;5016286;28;20472;-89
2022/05/11 08:53:27;;;;;;;8.03;5.73;;;24.60;91.90;;;;;;5005026;28;20431;-89
2022/05/11 08:56:31;;;;;;;7.13;5.10;;;24.70;91.60;;;;;;5018922;28;20506;-88
2022/05/11 08:59:15;;;;;;;;;;;;;;;;;;;;;
2022/05/11 09:01:56;;;;;;;6.97;5.13;;;24.90;90.50;;;;;;5001416;28;20459;-88
2022/05/11 09:04:34;;;;;;;7.47;5.97;;;24.90;90.40;;;;;;4999916;28;20487;-89
2022/05/11 09:07:27;;;;;;;8.73;6.07;;;24.90;90.70;;;;;;4999235;28;20495;-89
2022/05/11 09:10:32;;;;;;;8.80;6.03;;;24.90;90.90;;;;;;5000207;28;20494;-89
2022/05/11 09:16:16;;;;;;;7.00;6.17;;;25.00;91.30;;;;;;4996079;28;20494;-90
2022/05/11 09:28:52;;;;;;;9.07;6.70;;;25.20;90.30;;;;;;4912772;29;20549;-90
2022/05/11 09:32:06;;;;;;;7.53;6.50;;;25.30;90.70;;;;;;4957471;29;20453;-89
2022/05/11 09:38:11;;;;;;;7.33;6.03;;;25.40;90.40;;;;;;4997786;28;20436;-89
2022/05/11 09:50:40;;;;;;;7.83;6.70;;;25.50;89.60;;;;;;5088637;22;20497;-89
2022/05/11 09:57:12;;;;;;;7.63;6.17;;;25.70;89.60;;;;;;5018119;28;20498;-89
2022/05/11 09:59:57;;;;;;;6.70;6.00;;;25.70;89.80;;;;;;5025741;28;20463;-89
2022/05/11 10:02:46;;;;;;;8.40;7.50;;;25.90;88.40;;;;;;5023528;28;20992;-89
2022/05/11 10:05:28;;;;;;;9.60;7.83;;;26.00;87.90;;;;;;5024741;28;20451;-89
2022/05/11 10:08:21;;;;;;;15.07;7.00;;;26.10;87.90;;;;;;5031893;28;20434;-89
2022/05/11 10:23:03;;;;;;;7.40;6.67;;;26.30;84.90;;;;;;5024207;28;20406;-86
2022/05/11 10:25:38;;;;;;;9.43;6.63;;;26.20;84.80;;;;;;5024140;28;20445;-88
2022/05/11 10:28:21;;;;;;;12.47;6.93;;;26.30;84.60;;;;;;5002125;28;20514;-87
2022/05/11 10:34:42;;;;;;;8.47;6.80;;;26.50;83.50;;;;;;5005187;28;20483;-89
2022/05/11 10:37:29;;;;;;;7.70;6.70;;;26.70;81.60;;;;;;5020423;28;20522;-88
2022/05/11 10:40:17;;;;;;;8.90;6.83;;;26.90;80.70;;;;;;5020859;28;20454;-89
2022/05/11 10:42:53;;;;;;;7.40;6.13;;;26.90;79.50;;;;;;5020968;28;20444;-90
2022/05/11 10:45:25;;;;;;;9.90;6.83;;;27.10;77.90;;;;;;5012235;28;20438;-91
2022/05/11 10:51:16;;;;;;;8.23;6.03;;;27.10;75.90;;;;;;5014026;28;20450;-90
2022/05/11 10:57:04;;;;;;;6.10;5.40;;;27.00;72.80;;;;;;5003561;28;20493;-89
2022/05/11 10:59:56;;;;;;;7.17;5.40;;;27.00;72.20;;;;;;5003478;28;20542;-89
2022/05/11 11:07:11;;;;;;;10.90;5.50;;;27.10;71.30;;;;;;5006438;28;20455;-87
2022/05/11 11:08:48;;;;;;;9.37;5.30;;;27.20;71.30;;;;;;5003621;28;20481;-91
2022/05/11 11:11:34;;;;;;;8.87;5.97;;;27.30;71.90;;;;;;5002209;28;20458;-88
2022/05/11 11:14:21;;;;;;;7.90;6.40;;;27.30;70.10;;;;;;5012552;28;20451;-88
2022/05/11 11:17:20;;;;;;;7.37;5.67;;;27.30;69.00;;;;;;5019042;28;20490;-87
2022/05/11 11:20:18;;;;;;;6.30;5.50;;;27.10;68.50;;;;;;5019441;28;20474;-86
2022/05/11 11:23:41;;;;;;;9.23;5.80;;;27.10;68.90;;;;;;5019788;28;20475;-87
2022/05/11 11:29:32;;;;;;;6.70;5.97;;;27.00;70.10;;;;;;5008886;28;20462;-87
2022/05/11 11:32:21;;;;;;;6.53;5.63;;;27.00;70.10;;;;;;5006874;28;20447;-89
2022/05/11 11:35:14;;;;;;;7.87;5.50;;;27.10;69.20;;;;;;5010047;28;20455;-88
2022/05/11 11:37:46;;;;;;;7.20;5.43;;;27.10;69.50;;;;;;5003468;28;20585;-89
2022/05/11 11:40:37;;;;;;;7.13;6.33;;;27.20;70.20;;;;;;5000877;28;20474;-88
2022/05/11 11:43:43;;;;;;;6.33;5.73;;;27.30;69.80;;;;;;5000176;28;20455;-88
2022/05/11 11:46:27;;;;;;;8.63;6.10;;;27.50;69.30;;;;;;5005676;28;20514;-89
2022/05/11 11:49:07;;;;;;;7.07;6.10;;;27.70;67.70;;;;;;5011349;28;20470;-89
2022/05/11 11:51:53;;;;;;;6.67;5.43;;;27.90;66.90;;;;;;5010615;28;20463;-89
2022/05/11 11:54:29;;;;;;;6.03;4.67;;;27.80;64.70;;;;;;5002841;28;20447;-88
2022/05/11 11:56:58;;;;;;;7.60;5.50;;;27.80;64.10;;;;;;5001232;28;20529;-90
2022/05/11 11:59:42;;;;;;;6.83;5.93;;;27.70;63.40;;;;;;5001384;28;20458;-89
2022/05/11 12:02:23;;;;;;;7.47;5.10;;;27.70;63.80;;;;;;5009628;28;20434;-88
2022/05/11 12:05:13;;;;;;;6.83;4.60;;;27.70;62.40;;;;;;5011869;28;20455;-89
2022/05/11 12:16:07;;;;;;;6.13;4.70;;;27.70;58.40;;;;;;5000792;28;20450;-88
2022/05/11 12:18:36;;;;;;;6.30;5.23;;;27.80;58.70;;;;;;5003553;28;20495;-89
2022/05/11 12:21:10;;;;;;;6.23;4.87;;;27.80;58.40;;;;;;5015178;28;20482;-87
2022/05/11 12:23:41;;;;;;;6.63;4.10;;;27.90;57.80;;;;;;5018760;28;20443;-88
2022/05/11 12:26:12;;;;;;;6.27;4.57;;;28.00;57.00;;;;;;5006078;28;20474;-88
2022/05/11 12:28:44;;;;;;;5.63;4.43;;;28.00;55.00;;;;;;5007749;28;20432;-88
2022/05/11 12:31:26;;;;;;;7.40;4.90;;;28.00;54.40;;;;;;5012151;28;20475;-88
2022/05/11 12:33:56;;;;;;;5.67;4.40;;;27.90;54.00;;;;;;5009026;28;20455;-88
2022/05/11 12:36:35;;;;;;;5.70;4.33;;;28.00;53.60;;;;;;5010349;28;20491;-87
2022/05/11 12:39:04;;;;;;;8.37;4.10;;;28.00;53.30;;;;;;5017013;28;20423;-86
2022/05/11 12:41:34;;;;;;;5.90;4.27;;;28.00;53.30;;;;;;5018968;28;20494;-86
2022/05/11 12:44:05;;;;;;;6.30;3.90;;;28.10;52.80;;;;;;5017419;28;20466;-88
2022/05/11 12:46:41;;;;;;;8.27;4.17;;;28.10;53.50;;;;;;5011409;28;20476;-88
2022/05/11 12:49:19;;;;;;;6.33;4.40;;;28.20;52.80;;;;;;5011421;28;20440;-88
2022/05/11 12:51:55;;;;;;;6.37;4.30;;;28.30;52.90;;;;;;5001804;28;20440;-87
2022/05/11 12:54:25;;;;;;;6.43;5.00;;;28.30;52.60;;;;;;5000569;28;20523;-88
2022/05/11 12:57:02;;;;;;;5.87;4.00;;;28.30;52.90;;;;;;4998928;28;21013;-88
2022/05/11 12:59:33;;;;;;;6.53;4.90;;;28.30;52.50;;;;;;5000187;28;20443;-86
2022/05/11 13:02:20;;;;;;;7.90;4.63;;;28.30;52.80;;;;;;5005551;28;20495;-89
2022/05/11 13:04:52;;;;;;;6.87;4.40;;;28.40;52.40;;;;;;5012098;28;20419;-86
2022/05/11 13:07:25;;;;;;;5.60;4.37;;;28.40;51.70;;;;;;5018402;28;20453;-84
2022/05/11 13:10:04;;;;;;;7.53;3.83;;;28.50;51.20;;;;;;5016869;28;20447;-89
2022/05/11 13:12:34;;;;;;;7.60;3.90;;;28.50;51.00;;;;;;5006120;28;20459;-88
2022/05/11 13:15:02;;;;;;;6.30;4.17;;;28.60;50.70;;;;;;5003456;28;20539;-88
2022/05/11 13:17:34;;;;;;;6.40;4.20;;;28.70;50.40;;;;;;5012205;28;20498;-88
2022/05/11 13:20:05;;;;;;;6.93;4.00;;;28.60;50.50;;;;;;5007439;28;20503;-88
2022/05/11 13:22:33;;;;;;;6.90;4.20;;;28.60;50.70;;;;;;5015592;28;20455;-89
2022/05/11 13:25:02;;;;;;;8.30;4.93;;;28.70;50.50;;;;;;5001244;28;20613;-89
2022/05/11 13:27:38;;;;;;;7.50;5.23;;;28.70;49.70;;;;;;5002666;28;20495;-89
2022/05/11 13:30:20;;;;;;;6.43;4.40;;;28.70;50.00;;;;;;5005352;28;20455;-89
2022/05/11 13:32:50;;;;;;;6.70;4.60;;;28.80;50.20;;;;;;5003351;28;20777;-88
2022/05/11 13:35:21;;;;;;;5.60;4.60;;;28.80;50.00;;;;;;5004985;28;20506;-89
2022/05/11 13:38:04;;;;;;;10.33;4.80;;;28.90;49.70;;;;;;5003318;28;20487;-88
2022/05/11 13:40:34;;;;;;;7.20;4.40;;;29.00;49.20;;;;;;5002057;28;20459;-89
2022/05/11 13:43:02;;;;;;;5.40;4.10;;;29.00;48.50;;;;;;5001831;28;20458;-88
2022/05/11 13:45:29;;;;;;;6.83;4.33;;;29.00;47.60;;;;;;5003207;28;20510;-89
2022/05/11 13:48:16;;;;;;;5.80;4.20;;;29.00;48.60;;;;;;5002442;28;20967;-89
2022/05/11 13:50:45;;;;;;;7.30;4.40;;;29.00;48.10;;;;;;5001609;28;20990;-89
2022/05/11 13:53:27;;;;;;;6.30;4.10;;;29.10;48.30;;;;;;5001628;28;20454;-89
2022/05/11 13:56:04;;;;;;;6.30;4.67;;;29.20;47.90;;;;;;5003979;28;20439;-89
2022/05/11 13:58:33;;;;;;;6.43;4.83;;;29.20;47.80;;;;;;5008401;28;20462;-88
2022/05/11 14:01:04;;;;;;;5.70;3.73;;;29.20;47.70;;;;;;5015739;28;20436;-87
2022/05/11 14:03:34;;;;;;;8.70;4.40;;;29.20;47.50;;;;;;5016135;28;20463;-88
2022/05/11 14:06:04;;;;;;;7.47;4.43;;;29.30;46.80;;;;;;5015858;28;20507;-89
2022/05/11 14:08:34;;;;;;;7.03;4.47;;;29.40;46.70;;;;;;5013961;28;20412;-87
2022/05/11 14:11:01;;;;;;;7.00;4.30;;;29.50;46.20;;;;;;5013487;28;20435;-89
2022/05/11 14:13:28;;;;;;;8.73;4.60;;;29.60;46.40;;;;;;5013356;28;20507;-87
2022/05/11 14:15:55;;;;;;;6.13;4.27;;;29.80;46.40;;;;;;5011843;28;20459;-87
2022/05/11 14:18:25;;;;;;;6.80;4.30;;;29.90;46.20;;;;;;5010817;28;20451;-88
2022/05/11 14:20:52;;;;;;;6.20;4.37;;;29.90;46.30;;;;;;5013493;28;20431;-87
2022/05/11 14:23:19;;;;;;;8.50;4.90;;;30.00;46.70;;;;;;5002301;28;20467;-88
2022/05/11 14:25:48;;;;;;;7.97;4.93;;;30.10;46.60;;;;;;4999824;28;20482;-87
2022/05/11 14:28:18;;;;;;;9.20;4.67;;;30.30;46.40;;;;;;4997761;28;21012;-87
2022/05/11 14:30:46;;;;;;;5.50;4.00;;;30.50;45.40;;;;;;4998790;28;20493;-87
2022/05/11 14:33:15;;;;;;;7.97;5.23;;;30.50;44.10;;;;;;4999944;28;20447;-88
2022/05/11 14:35:51;;;;;;;8.63;4.10;;;30.60;43.80;;;;;;5013531;28;20436;-87
2022/05/11 14:38:18;;;;;;;7.90;4.87;;;30.80;43.60;;;;;;5002058;28;20451;-86
2022/05/11 14:40:46;;;;;;;6.23;4.90;;;30.80;43.80;;;;;;4998578;28;20511;-87
2022/05/11 14:43:17;;;;;;;5.83;4.53;;;30.90;44.40;;;;;;4998559;28;20519;-85
2022/05/11 14:45:50;;;;;;;6.40;4.60;;;31.00;44.00;;;;;;5002139;28;20456;-85
2022/05/11 14:48:22;;;;;;;15.27;8.67;;;31.10;43.60;;;;;;5003349;28;20499;-84
2022/05/11 14:50:49;;;;;;;6.33;4.60;;;31.30;43.50;;;;;;5001784;28;20478;-86
2022/05/11 14:53:17;;;;;;;7.33;4.67;;;31.70;43.10;;;;;;5000288;28;20455;-86
2022/05/11 14:55:44;;;;;;;5.37;4.30;;;31.90;42.50;;;;;;4998880;28;20455;-87
2022/05/11 15:03:45;;;;;;;6.40;4.63;;;31.90;43.70;;;;;;4998416;28;20462;-86
2022/05/11 15:06:17;;;;;;;6.23;4.77;;;31.80;44.50;;;;;;5003392;28;20479;-86
2022/05/11 15:08:45;;;;;;;5.20;4.23;;;32.00;44.50;;;;;;5004220;28;20479;-86
2022/05/11 15:13:57;;;;;;;5.17;4.10;;;31.80;44.50;;;;;;5001468;28;20423;-86
2022/05/11 15:16:30;;;;;;;6.63;5.30;;;31.90;44.50;;;;;;4997929;28;20489;-86